sensor_id;sensor_type;location;lat;lon;timestamp;temperature;humidity
64499;SHT31;51087;55.718;21.122;2022-08-21T00:01:58;20.41;90.56
64499;SHT31;51087;55.718;21.122;2022-08-21T00:04:24;20.40;90.43
64499;SHT31;51087;55.718;21.122;2022-08-21T00:06:51;20.43;90.32
64499;SHT31;51087;55.718;21.122;2022-08-21T00:09:17;20.41;89.93
64499;SHT31;51087;55.718;21.122;2022-08-21T00:11:43;20.44;89.93
64499;SHT31;51087;55.718;21.122;2022-08-21T00:14:09;20.41;89.81
64499;SHT31;51087;55.718;21.122;2022-08-21T00:16:35;20.43;89.49
64499;SHT31;51087;55.718;21.122;2022-08-21T00:19:02;20.44;89.45
64499;SHT31;51087;55.718;21.122;2022-08-21T00:21:27;20.43;89.42
64499;SHT31;51087;55.718;21.122;2022-08-21T00:23:53;20.40;88.81
64499;SHT31;51087;55.718;21.122;2022-08-21T00:26:18;20.45;89.05
64499;SHT31;51087;55.718;21.122;2022-08-21T00:28:44;20.48;89.12
64499;SHT31;51087;55.718;21.122;2022-08-21T00:31:12;20.49;88.94
64499;SHT31;51087;55.718;21.122;2022-08-21T00:33:37;20.48;88.62
64499;SHT31;51087;55.718;21.122;2022-08-21T00:36:03;20.43;88.72
64499;SHT31;51087;55.718;21.122;2022-08-21T00:38:29;20.45;88.83
64499;SHT31;51087;55.718;21.122;2022-08-21T00:40:58;20.44;88.68
64499;SHT31;51087;55.718;21.122;2022-08-21T00:43:27;20.44;88.30
64499;SHT31;51087;55.718;21.122;2022-08-21T00:45:53;20.45;88.36
64499;SHT31;51087;55.718;21.122;2022-08-21T00:48:19;20.43;88.72
64499;SHT31;51087;55.718;21.122;2022-08-21T00:51:07;20.43;88.00
64499;SHT31;51087;55.718;21.122;2022-08-21T00:53:36;20.47;88.16
64499;SHT31;51087;55.718;21.122;2022-08-21T00:56:05;20.47;88.10
64499;SHT31;51087;55.718;21.122;2022-08-21T00:58:32;20.48;87.98
64499;SHT31;51087;55.718;21.122;2022-08-21T01:00:59;20.49;87.87
64499;SHT31;51087;55.718;21.122;2022-08-21T01:03:25;20.45;87.77
64499;SHT31;51087;55.718;21.122;2022-08-21T01:05:52;20.49;87.82
64499;SHT31;51087;55.718;21.122;2022-08-21T01:08:18;20.49;88.11
64499;SHT31;51087;55.718;21.122;2022-08-21T01:10:45;20.48;87.87
64499;SHT31;51087;55.718;21.122;2022-08-21T01:13:14;20.47;87.74
64499;SHT31;51087;55.718;21.122;2022-08-21T01:15:45;20.45;87.99
64499;SHT31;51087;55.718;21.122;2022-08-21T01:18:13;20.47;87.94
64499;SHT31;51087;55.718;21.122;2022-08-21T01:20:44;20.43;87.96
64499;SHT31;51087;55.718;21.122;2022-08-21T01:23:10;20.44;87.50
64499;SHT31;51087;55.718;21.122;2022-08-21T01:25:35;20.45;87.88
64499;SHT31;51087;55.718;21.122;2022-08-21T01:28:09;20.47;87.95
64499;SHT31;51087;55.718;21.122;2022-08-21T01:30:37;20.45;87.75
64499;SHT31;51087;55.718;21.122;2022-08-21T01:33:03;20.45;87.85
64499;SHT31;51087;55.718;21.122;2022-08-21T01:35:29;20.45;87.72
64499;SHT31;51087;55.718;21.122;2022-08-21T01:37:55;20.44;87.82
64499;SHT31;51087;55.718;21.122;2022-08-21T01:40:20;20.47;87.86
64499;SHT31;51087;55.718;21.122;2022-08-21T01:42:46;20.45;87.58
64499;SHT31;51087;55.718;21.122;2022-08-21T01:45:13;20.47;87.76
64499;SHT31;51087;55.718;21.122;2022-08-21T01:47:39;20.47;87.62
64499;SHT31;51087;55.718;21.122;2022-08-21T01:50:10;20.49;87.59
64499;SHT31;51087;55.718;21.122;2022-08-21T01:52:36;20.49;87.57
64499;SHT31;51087;55.718;21.122;2022-08-21T01:55:02;20.49;87.71
64499;SHT31;51087;55.718;21.122;2022-08-21T01:57:27;20.51;87.31
64499;SHT31;51087;55.718;21.122;2022-08-21T01:59:53;20.52;87.53
64499;SHT31;51087;55.718;21.122;2022-08-21T02:02:18;20.52;86.98
64499;SHT31;51087;55.718;21.122;2022-08-21T02:04:44;20.51;86.98
64499;SHT31;51087;55.718;21.122;2022-08-21T02:07:09;20.52;87.11
64499;SHT31;51087;55.718;21.122;2022-08-21T02:09:35;20.52;87.20
64499;SHT31;51087;55.718;21.122;2022-08-21T02:12:00;20.51;87.19
64499;SHT31;51087;55.718;21.122;2022-08-21T02:14:26;20.52;87.12
64499;SHT31;51087;55.718;21.122;2022-08-21T02:16:51;20.51;86.97
64499;SHT31;51087;55.718;21.122;2022-08-21T02:19:17;20.54;87.13
64499;SHT31;51087;55.718;21.122;2022-08-21T02:21:43;20.52;87.04
64499;SHT31;51087;55.718;21.122;2022-08-21T02:24:10;20.52;87.22
64499;SHT31;51087;55.718;21.122;2022-08-21T02:26:36;20.52;87.19
64499;SHT31;51087;55.718;21.122;2022-08-21T02:29:03;20.51;86.88
64499;SHT31;51087;55.718;21.122;2022-08-21T02:31:28;20.49;87.05
64499;SHT31;51087;55.718;21.122;2022-08-21T02:33:54;20.48;87.06
64499;SHT31;51087;55.718;21.122;2022-08-21T02:36:19;20.48;87.08
64499;SHT31;51087;55.718;21.122;2022-08-21T02:38:45;20.47;87.15
64499;SHT31;51087;55.718;21.122;2022-08-21T02:41:14;20.45;87.51
64499;SHT31;51087;55.718;21.122;2022-08-21T02:43:40;20.41;87.12
64499;SHT31;51087;55.718;21.122;2022-08-21T02:46:06;20.40;87.46
64499;SHT31;51087;55.718;21.122;2022-08-21T02:48:33;20.38;87.62
64499;SHT31;51087;55.718;21.122;2022-08-21T02:51:12;20.36;87.83
64499;SHT31;51087;55.718;21.122;2022-08-21T02:53:38;20.30;87.92
64499;SHT31;51087;55.718;21.122;2022-08-21T02:56:07;20.31;88.06
64499;SHT31;51087;55.718;21.122;2022-08-21T02:58:37;20.28;87.93
64499;SHT31;51087;55.718;21.122;2022-08-21T03:01:04;20.28;88.25
64499;SHT31;51087;55.718;21.122;2022-08-21T03:03:30;20.26;88.05
64499;SHT31;51087;55.718;21.122;2022-08-21T03:05:56;20.26;88.25
64499;SHT31;51087;55.718;21.122;2022-08-21T03:08:22;20.27;88.26
64499;SHT31;51087;55.718;21.122;2022-08-21T03:10:51;20.21;88.16
64499;SHT31;51087;55.718;21.122;2022-08-21T03:13:17;20.23;88.33
64499;SHT31;51087;55.718;21.122;2022-08-21T03:15:44;20.23;88.42
64499;SHT31;51087;55.718;21.122;2022-08-21T03:18:11;20.24;88.39
64499;SHT31;51087;55.718;21.122;2022-08-21T03:20:38;20.21;88.26
64499;SHT31;51087;55.718;21.122;2022-08-21T03:23:05;20.21;88.16
64499;SHT31;51087;55.718;21.122;2022-08-21T03:25:31;20.18;88.45
64499;SHT31;51087;55.718;21.122;2022-08-21T03:27:58;20.18;88.21
64499;SHT31;51087;55.718;21.122;2022-08-21T03:30:23;20.16;88.40
64499;SHT31;51087;55.718;21.122;2022-08-21T03:32:49;20.16;88.46
64499;SHT31;51087;55.718;21.122;2022-08-21T03:35:16;20.17;88.50
64499;SHT31;51087;55.718;21.122;2022-08-21T03:37:41;20.18;88.55
64499;SHT31;51087;55.718;21.122;2022-08-21T03:40:08;20.18;88.55
64499;SHT31;51087;55.718;21.122;2022-08-21T03:42:35;20.18;88.55
64499;SHT31;51087;55.718;21.122;2022-08-21T03:45:01;20.20;88.53
64499;SHT31;51087;55.718;21.122;2022-08-21T03:47:26;20.20;88.54
64499;SHT31;51087;55.718;21.122;2022-08-21T03:49:52;20.17;88.36
64499;SHT31;51087;55.718;21.122;2022-08-21T03:52:18;20.23;88.33
64499;SHT31;51087;55.718;21.122;2022-08-21T03:54:44;20.24;88.19
64499;SHT31;51087;55.718;21.122;2022-08-21T03:57:10;20.26;88.30
64499;SHT31;51087;55.718;21.122;2022-08-21T03:59:36;20.27;88.25
64499;SHT31;51087;55.718;21.122;2022-08-21T04:02:04;20.26;88.11
64499;SHT31;51087;55.718;21.122;2022-08-21T04:04:30;20.27;88.11
64499;SHT31;51087;55.718;21.122;2022-08-21T04:06:56;20.27;87.81
64499;SHT31;51087;55.718;21.122;2022-08-21T04:09:23;20.33;88.09
64499;SHT31;51087;55.718;21.122;2022-08-21T04:11:49;20.40;87.69
64499;SHT31;51087;55.718;21.122;2022-08-21T04:14:15;20.47;87.53
64499;SHT31;51087;55.718;21.122;2022-08-21T04:16:42;20.49;87.52
64499;SHT31;51087;55.718;21.122;2022-08-21T04:19:09;20.57;87.17
64499;SHT31;51087;55.718;21.122;2022-08-21T04:21:36;20.58;87.03
64499;SHT31;51087;55.718;21.122;2022-08-21T04:24:02;20.57;86.69
64499;SHT31;51087;55.718;21.122;2022-08-21T04:26:28;20.61;86.89
64499;SHT31;51087;55.718;21.122;2022-08-21T04:28:53;20.65;86.57
64499;SHT31;51087;55.718;21.122;2022-08-21T04:31:23;20.67;86.92
64499;SHT31;51087;55.718;21.122;2022-08-21T04:33:48;20.68;86.67
64499;SHT31;51087;55.718;21.122;2022-08-21T04:36:14;20.75;86.55
64499;SHT31;51087;55.718;21.122;2022-08-21T04:38:39;20.76;86.19
64499;SHT31;51087;55.718;21.122;2022-08-21T04:41:05;20.81;86.25
64499;SHT31;51087;55.718;21.122;2022-08-21T04:43:32;20.86;86.22
64499;SHT31;51087;55.718;21.122;2022-08-21T04:45:57;20.88;85.98
64499;SHT31;51087;55.718;21.122;2022-08-21T04:48:25;20.91;85.81
64499;SHT31;51087;55.718;21.122;2022-08-21T04:51:02;20.99;85.56
64499;SHT31;51087;55.718;21.122;2022-08-21T04:53:41;21.09;85.41
64499;SHT31;51087;55.718;21.122;2022-08-21T04:56:11;21.19;85.04
64499;SHT31;51087;55.718;21.122;2022-08-21T04:58:38;21.19;84.72
64499;SHT31;51087;55.718;21.122;2022-08-21T05:01:07;21.23;84.47
64499;SHT31;51087;55.718;21.122;2022-08-21T05:03:35;21.19;84.74
64499;SHT31;51087;55.718;21.122;2022-08-21T05:06:04;21.20;84.94
64499;SHT31;51087;55.718;21.122;2022-08-21T05:08:31;21.16;84.91
64499;SHT31;51087;55.718;21.122;2022-08-21T05:10:56;21.13;85.05
64499;SHT31;51087;55.718;21.122;2022-08-21T05:13:22;21.10;85.27
64499;SHT31;51087;55.718;21.122;2022-08-21T05:15:47;21.14;85.27
64499;SHT31;51087;55.718;21.122;2022-08-21T05:18:13;21.09;85.29
64499;SHT31;51087;55.718;21.122;2022-08-21T05:20:39;21.13;85.36
64499;SHT31;51087;55.718;21.122;2022-08-21T05:23:09;21.12;85.17
64499;SHT31;51087;55.718;21.122;2022-08-21T05:25:35;21.13;85.12
64499;SHT31;51087;55.718;21.122;2022-08-21T05:28:01;21.16;84.92
64499;SHT31;51087;55.718;21.122;2022-08-21T05:30:26;21.22;84.83
64499;SHT31;51087;55.718;21.122;2022-08-21T05:32:59;21.30;84.77
64499;SHT31;51087;55.718;21.122;2022-08-21T05:35:26;21.27;84.76
64499;SHT31;51087;55.718;21.122;2022-08-21T05:37:52;21.31;84.74
64499;SHT31;51087;55.718;21.122;2022-08-21T05:40:17;21.40;84.85
64499;SHT31;51087;55.718;21.122;2022-08-21T05:42:43;21.39;84.59
64499;SHT31;51087;55.718;21.122;2022-08-21T05:45:09;21.41;84.67
64499;SHT31;51087;55.718;21.122;2022-08-21T05:47:35;21.47;84.50
64499;SHT31;51087;55.718;21.122;2022-08-21T05:50:00;21.48;84.58
64499;SHT31;51087;55.718;21.122;2022-08-21T05:52:26;21.47;84.13
64499;SHT31;51087;55.718;21.122;2022-08-21T05:54:51;21.50;84.27
64499;SHT31;51087;55.718;21.122;2022-08-21T05:57:19;21.39;84.51
64499;SHT31;51087;55.718;21.122;2022-08-21T05:59:45;21.37;84.50
64499;SHT31;51087;55.718;21.122;2022-08-21T06:02:10;21.40;84.81
64499;SHT31;51087;55.718;21.122;2022-08-21T06:04:40;21.37;84.45
64499;SHT31;51087;55.718;21.122;2022-08-21T06:07:06;21.40;84.79
64499;SHT31;51087;55.718;21.122;2022-08-21T06:09:32;21.48;84.62
64499;SHT31;51087;55.718;21.122;2022-08-21T06:11:58;21.44;84.54
64499;SHT31;51087;55.718;21.122;2022-08-21T06:14:23;21.48;84.45
64499;SHT31;51087;55.718;21.122;2022-08-21T06:16:49;21.50;84.58
64499;SHT31;51087;55.718;21.122;2022-08-21T06:19:14;21.50;84.31
64499;SHT31;51087;55.718;21.122;2022-08-21T06:21:40;21.48;84.42
64499;SHT31;51087;55.718;21.122;2022-08-21T06:24:05;21.53;84.63
64499;SHT31;51087;55.718;21.122;2022-08-21T06:26:32;21.54;84.48
64499;SHT31;51087;55.718;21.122;2022-08-21T06:28:58;21.61;84.62
64499;SHT31;51087;55.718;21.122;2022-08-21T06:31:25;21.55;84.09
64499;SHT31;51087;55.718;21.122;2022-08-21T06:33:51;21.64;84.07
64499;SHT31;51087;55.718;21.122;2022-08-21T06:36:18;21.65;83.99
64499;SHT31;51087;55.718;21.122;2022-08-21T06:38:43;21.67;83.90
64499;SHT31;51087;55.718;21.122;2022-08-21T06:41:10;21.73;83.58
64499;SHT31;51087;55.718;21.122;2022-08-21T06:43:35;21.68;83.47
64499;SHT31;51087;55.718;21.122;2022-08-21T06:46:01;21.59;83.92
64499;SHT31;51087;55.718;21.122;2022-08-21T06:48:26;21.67;83.95
64499;SHT31;51087;55.718;21.122;2022-08-21T06:50:53;21.64;83.97
64499;SHT31;51087;55.718;21.122;2022-08-21T06:53:20;21.71;83.77
64499;SHT31;51087;55.718;21.122;2022-08-21T06:55:46;21.61;83.98
64499;SHT31;51087;55.718;21.122;2022-08-21T06:58:12;21.61;84.45
64499;SHT31;51087;55.718;21.122;2022-08-21T07:00:40;21.58;84.43
64499;SHT31;51087;55.718;21.122;2022-08-21T07:03:06;21.61;84.34
64499;SHT31;51087;55.718;21.122;2022-08-21T07:05:31;21.65;84.48
64499;SHT31;51087;55.718;21.122;2022-08-21T07:07:57;21.59;84.59
64499;SHT31;51087;55.718;21.122;2022-08-21T07:10:25;21.54;84.71
64499;SHT31;51087;55.718;21.122;2022-08-21T07:12:50;21.47;84.57
64499;SHT31;51087;55.718;21.122;2022-08-21T07:15:18;21.50;85.24
64499;SHT31;51087;55.718;21.122;2022-08-21T07:17:43;21.47;85.32
64499;SHT31;51087;55.718;21.122;2022-08-21T07:20:09;21.44;85.51
64499;SHT31;51087;55.718;21.122;2022-08-21T07:22:36;21.47;85.41
64499;SHT31;51087;55.718;21.122;2022-08-21T07:25:05;21.57;85.15
64499;SHT31;51087;55.718;21.122;2022-08-21T07:27:30;21.64;84.93
64499;SHT31;51087;55.718;21.122;2022-08-21T07:29:56;21.67;84.79
64499;SHT31;51087;55.718;21.122;2022-08-21T07:32:22;21.74;84.29
64499;SHT31;51087;55.718;21.122;2022-08-21T07:34:48;21.88;84.18
64499;SHT31;51087;55.718;21.122;2022-08-21T07:37:13;22.01;83.69
64499;SHT31;51087;55.718;21.122;2022-08-21T07:39:39;22.16;83.22
64499;SHT31;51087;55.718;21.122;2022-08-21T07:42:04;22.40;82.50
64499;SHT31;51087;55.718;21.122;2022-08-21T07:44:29;22.47;82.31
64499;SHT31;51087;55.718;21.122;2022-08-21T07:46:55;22.49;81.70
64499;SHT31;51087;55.718;21.122;2022-08-21T07:49:20;22.43;81.52
64499;SHT31;51087;55.718;21.122;2022-08-21T07:51:46;22.37;81.73
64499;SHT31;51087;55.718;21.122;2022-08-21T07:54:11;22.53;81.85
64499;SHT31;51087;55.718;21.122;2022-08-21T07:56:37;22.64;81.52
64499;SHT31;51087;55.718;21.122;2022-08-21T07:59:02;22.75;81.29
64499;SHT31;51087;55.718;21.122;2022-08-21T08:01:28;22.97;81.34
64499;SHT31;51087;55.718;21.122;2022-08-21T08:03:54;23.14;80.35
64499;SHT31;51087;55.718;21.122;2022-08-21T08:06:20;23.30;80.33
64499;SHT31;51087;55.718;21.122;2022-08-21T08:08:45;23.39;79.41
64499;SHT31;51087;55.718;21.122;2022-08-21T08:11:12;23.39;79.34
64499;SHT31;51087;55.718;21.122;2022-08-21T08:13:41;23.49;78.83
64499;SHT31;51087;55.718;21.122;2022-08-21T08:16:07;23.67;78.66
64499;SHT31;51087;55.718;21.122;2022-08-21T08:18:33;23.75;78.08
64499;SHT31;51087;55.718;21.122;2022-08-21T08:20:59;23.84;78.08
64499;SHT31;51087;55.718;21.122;2022-08-21T08:23:24;23.94;77.49
64499;SHT31;51087;55.718;21.122;2022-08-21T08:25:50;23.66;78.00
64499;SHT31;51087;55.718;21.122;2022-08-21T08:28:16;23.78;78.49
64499;SHT31;51087;55.718;21.122;2022-08-21T08:30:41;23.80;77.17
64499;SHT31;51087;55.718;21.122;2022-08-21T08:33:07;23.87;77.40
64499;SHT31;51087;55.718;21.122;2022-08-21T08:35:33;23.96;76.85
64499;SHT31;51087;55.718;21.122;2022-08-21T08:37:58;24.04;76.75
64499;SHT31;51087;55.718;21.122;2022-08-21T08:40:47;24.30;75.96
64499;SHT31;51087;55.718;21.122;2022-08-21T08:43:17;24.73;75.23
64499;SHT31;51087;55.718;21.122;2022-08-21T08:45:46;24.81;74.00
64499;SHT31;51087;55.718;21.122;2022-08-21T08:48:21;24.91;73.98
64499;SHT31;51087;55.718;21.122;2022-08-21T08:50:55;24.98;74.22
64499;SHT31;51087;55.718;21.122;2022-08-21T08:53:32;24.72;74.30
64499;SHT31;51087;55.718;21.122;2022-08-21T08:56:00;24.74;74.35
64499;SHT31;51087;55.718;21.122;2022-08-21T08:58:32;24.84;74.67
64499;SHT31;51087;55.718;21.122;2022-08-21T09:00:58;24.88;74.46
64499;SHT31;51087;55.718;21.122;2022-08-21T09:03:24;25.12;74.37
64499;SHT31;51087;55.718;21.122;2022-08-21T09:06:37;24.95;73.61
64499;SHT31;51087;55.718;21.122;2022-08-21T09:09:10;25.14;73.30
64499;SHT31;51087;55.718;21.122;2022-08-21T09:11:52;25.27;73.35
64499;SHT31;51087;55.718;21.122;2022-08-21T09:17:15;24.94;73.60
64499;SHT31;51087;55.718;21.122;2022-08-21T09:19:52;24.72;73.95
64499;SHT31;51087;55.718;21.122;2022-08-21T09:22:40;25.00;74.11
64499;SHT31;51087;55.718;21.122;2022-08-21T09:25:28;25.11;72.88
64499;SHT31;51087;55.718;21.122;2022-08-21T09:27:55;25.17;73.38
64499;SHT31;51087;55.718;21.122;2022-08-21T09:30:27;25.15;72.98
64499;SHT31;51087;55.718;21.122;2022-08-21T09:32:53;25.15;72.41
64499;SHT31;51087;55.718;21.122;2022-08-21T09:35:21;24.77;73.17
64499;SHT31;51087;55.718;21.122;2022-08-21T09:43:18;24.72;73.28
64499;SHT31;51087;55.718;21.122;2022-08-21T09:45:44;25.06;73.30
64499;SHT31;51087;55.718;21.122;2022-08-21T09:50:39;25.65;70.90
64499;SHT31;51087;55.718;21.122;2022-08-21T09:53:24;25.97;70.31
64499;SHT31;51087;55.718;21.122;2022-08-21T09:55:56;26.07;70.04
64499;SHT31;51087;55.718;21.122;2022-08-21T09:58:43;25.90;69.92
64499;SHT31;51087;55.718;21.122;2022-08-21T10:01:19;25.73;70.46
64499;SHT31;51087;55.718;21.122;2022-08-21T10:03:45;25.87;70.49
64499;SHT31;51087;55.718;21.122;2022-08-21T10:06:22;25.76;70.13
64499;SHT31;51087;55.718;21.122;2022-08-21T10:08:48;25.79;70.24
64499;SHT31;51087;55.718;21.122;2022-08-21T10:11:16;25.39;70.73
64499;SHT31;51087;55.718;21.122;2022-08-21T10:19:19;25.38;71.79
64499;SHT31;51087;55.718;21.122;2022-08-21T10:27:37;25.01;72.05
64499;SHT31;51087;55.718;21.122;2022-08-21T10:30:15;25.01;72.83
64499;SHT31;51087;55.718;21.122;2022-08-21T10:32:56;25.00;72.46
64499;SHT31;51087;55.718;21.122;2022-08-21T10:35:29;24.94;72.63
64499;SHT31;51087;55.718;21.122;2022-08-21T10:37:59;25.00;73.20
64499;SHT31;51087;55.718;21.122;2022-08-21T10:44:05;25.08;72.23
64499;SHT31;51087;55.718;21.122;2022-08-21T10:56:54;25.10;72.36
64499;SHT31;51087;55.718;21.122;2022-08-21T10:59:32;25.28;71.86
64499;SHT31;51087;55.718;21.122;2022-08-21T11:02:16;25.49;71.76
64499;SHT31;51087;55.718;21.122;2022-08-21T11:04:54;25.50;71.03
64499;SHT31;51087;55.718;21.122;2022-08-21T11:07:31;25.96;70.89
64499;SHT31;51087;55.718;21.122;2022-08-21T11:10:04;26.18;69.68
64499;SHT31;51087;55.718;21.122;2022-08-21T11:15:07;26.31;69.38
64499;SHT31;51087;55.718;21.122;2022-08-21T11:17:46;26.52;68.97
64499;SHT31;51087;55.718;21.122;2022-08-21T11:23:07;27.17;66.77
64499;SHT31;51087;55.718;21.122;2022-08-21T11:25:41;27.17;67.21
64499;SHT31;51087;55.718;21.122;2022-08-21T11:28:13;27.17;66.56
64499;SHT31;51087;55.718;21.122;2022-08-21T11:30:58;27.51;66.67
64499;SHT31;51087;55.718;21.122;2022-08-21T11:36:01;27.77;65.84
64499;SHT31;51087;55.718;21.122;2022-08-21T11:38:40;28.02;65.60
64499;SHT31;51087;55.718;21.122;2022-08-21T11:43:43;28.00;65.94
64499;SHT31;51087;55.718;21.122;2022-08-21T11:49:11;28.78;62.75
64499;SHT31;51087;55.718;21.122;2022-08-21T11:51:42;29.23;63.05
64499;SHT31;51087;55.718;21.122;2022-08-21T11:56:41;29.05;62.04
64499;SHT31;51087;55.718;21.122;2022-08-21T11:59:23;29.33;61.72
64499;SHT31;51087;55.718;21.122;2022-08-21T12:01:50;29.08;62.04
64499;SHT31;51087;55.718;21.122;2022-08-21T12:04:29;29.08;63.11
64499;SHT31;51087;55.718;21.122;2022-08-21T12:06:56;28.05;64.52
64499;SHT31;51087;55.718;21.122;2022-08-21T12:12:09;27.90;65.76
64499;SHT31;51087;55.718;21.122;2022-08-21T12:14:45;27.96;66.18
64499;SHT31;51087;55.718;21.122;2022-08-21T12:17:21;28.09;65.02
64499;SHT31;51087;55.718;21.122;2022-08-21T12:19:58;28.54;63.82
64499;SHT31;51087;55.718;21.122;2022-08-21T12:22:37;28.48;63.73
64499;SHT31;51087;55.718;21.122;2022-08-21T12:25:09;28.99;62.63
64499;SHT31;51087;55.718;21.122;2022-08-21T12:27:47;29.38;61.00
64499;SHT31;51087;55.718;21.122;2022-08-21T12:30:43;30.39;58.28
64499;SHT31;51087;55.718;21.122;2022-08-21T12:35:52;29.78;59.73
64499;SHT31;51087;55.718;21.122;2022-08-21T12:38:26;29.44;61.00
64499;SHT31;51087;55.718;21.122;2022-08-21T12:41:03;29.43;61.41
64499;SHT31;51087;55.718;21.122;2022-08-21T12:43:42;29.57;60.80
64499;SHT31;51087;55.718;21.122;2022-08-21T12:46:28;29.02;61.74
64499;SHT31;51087;55.718;21.122;2022-08-21T12:48:58;29.53;60.47
64499;SHT31;51087;55.718;21.122;2022-08-21T12:51:38;29.18;61.47
64499;SHT31;51087;55.718;21.122;2022-08-21T12:54:09;28.23;64.44
64499;SHT31;51087;55.718;21.122;2022-08-21T12:56:34;28.10;65.18
64499;SHT31;51087;55.718;21.122;2022-08-21T12:59:06;27.84;65.88
64499;SHT31;51087;55.718;21.122;2022-08-21T13:01:35;27.63;67.35
64499;SHT31;51087;55.718;21.122;2022-08-21T13:04:06;27.61;67.42
64499;SHT31;51087;55.718;21.122;2022-08-21T13:06:38;27.35;68.18
64499;SHT31;51087;55.718;21.122;2022-08-21T13:09:08;27.11;68.48
64499;SHT31;51087;55.718;21.122;2022-08-21T13:11:35;26.95;69.20
64499;SHT31;51087;55.718;21.122;2022-08-21T13:14:02;26.86;69.67
64499;SHT31;51087;55.718;21.122;2022-08-21T13:16:30;27.06;69.65
64499;SHT31;51087;55.718;21.122;2022-08-21T13:21:29;26.99;70.44
64499;SHT31;51087;55.718;21.122;2022-08-21T13:24:17;27.63;68.40
64499;SHT31;51087;55.718;21.122;2022-08-21T13:26:43;29.30;63.48
64499;SHT31;51087;55.718;21.122;2022-08-21T13:29:13;31.22;58.90
64499;SHT31;51087;55.718;21.122;2022-08-21T13:31:45;30.80;59.10
64499;SHT31;51087;55.718;21.122;2022-08-21T13:34:11;31.01;58.63
64499;SHT31;51087;55.718;21.122;2022-08-21T13:36:40;30.18;61.73
64499;SHT31;51087;55.718;21.122;2022-08-21T13:39:09;29.13;64.45
64499;SHT31;51087;55.718;21.122;2022-08-21T13:41:38;27.90;67.54
64499;SHT31;51087;55.718;21.122;2022-08-21T13:46:48;26.69;71.10
64499;SHT31;51087;55.718;21.122;2022-08-21T13:49:17;26.53;71.51
64499;SHT31;51087;55.718;21.122;2022-08-21T13:51:44;26.34;71.83
64499;SHT31;51087;55.718;21.122;2022-08-21T13:54:23;26.32;71.73
64499;SHT31;51087;55.718;21.122;2022-08-21T13:56:49;26.59;70.91
64499;SHT31;51087;55.718;21.122;2022-08-21T13:59:27;26.92;70.37
64499;SHT31;51087;55.718;21.122;2022-08-21T14:01:57;26.85;68.99
64499;SHT31;51087;55.718;21.122;2022-08-21T14:04:51;26.48;69.76
64499;SHT31;51087;55.718;21.122;2022-08-21T14:07:35;26.01;70.97
64499;SHT31;51087;55.718;21.122;2022-08-21T14:10:05;26.13;71.16
64499;SHT31;51087;55.718;21.122;2022-08-21T14:12:53;26.10;70.57
64499;SHT31;51087;55.718;21.122;2022-08-21T14:15:26;25.82;71.86
64499;SHT31;51087;55.718;21.122;2022-08-21T14:17:54;25.37;73.25
64499;SHT31;51087;55.718;21.122;2022-08-21T14:20:33;25.07;74.63
64499;SHT31;51087;55.718;21.122;2022-08-21T14:22:59;25.07;74.84
64499;SHT31;51087;55.718;21.122;2022-08-21T14:28:20;24.90;75.57
64499;SHT31;51087;55.718;21.122;2022-08-21T14:30:48;24.74;76.16
64499;SHT31;51087;55.718;21.122;2022-08-21T14:33:29;24.70;76.68
64499;SHT31;51087;55.718;21.122;2022-08-21T14:35:56;24.64;76.80
64499;SHT31;51087;55.718;21.122;2022-08-21T14:38:24;24.63;76.91
64499;SHT31;51087;55.718;21.122;2022-08-21T14:40:52;24.53;77.11
64499;SHT31;51087;55.718;21.122;2022-08-21T14:43:19;24.42;77.39
64499;SHT31;51087;55.718;21.122;2022-08-21T14:45:45;24.39;77.48
64499;SHT31;51087;55.718;21.122;2022-08-21T14:48:11;24.29;77.36
64499;SHT31;51087;55.718;21.122;2022-08-21T14:50:37;24.19;77.92
64499;SHT31;51087;55.718;21.122;2022-08-21T14:53:02;24.14;78.24
64499;SHT31;51087;55.718;21.122;2022-08-21T14:55:30;24.14;78.41
64499;SHT31;51087;55.718;21.122;2022-08-21T14:58:16;24.08;78.49
64499;SHT31;51087;55.718;21.122;2022-08-21T15:00:41;24.02;78.66
64499;SHT31;51087;55.718;21.122;2022-08-21T15:03:07;23.93;79.16
64499;SHT31;51087;55.718;21.122;2022-08-21T15:05:32;23.93;79.76
64499;SHT31;51087;55.718;21.122;2022-08-21T15:07:58;23.84;79.64
64499;SHT31;51087;55.718;21.122;2022-08-21T15:10:23;23.70;81.55
64499;SHT31;51087;55.718;21.122;2022-08-21T15:12:49;23.53;82.09
64499;SHT31;51087;55.718;21.122;2022-08-21T15:15:14;23.42;83.19
64499;SHT31;51087;55.718;21.122;2022-08-21T15:17:40;23.25;84.39
64499;SHT31;51087;55.718;21.122;2022-08-21T15:20:05;23.16;85.07
64499;SHT31;51087;55.718;21.122;2022-08-21T15:22:32;23.12;85.65
64499;SHT31;51087;55.718;21.122;2022-08-21T15:24:58;23.12;85.81
64499;SHT31;51087;55.718;21.122;2022-08-21T15:27:24;23.08;85.41
64499;SHT31;51087;55.718;21.122;2022-08-21T15:29:49;23.05;84.85
64499;SHT31;51087;55.718;21.122;2022-08-21T15:34:47;22.98;85.08
64499;SHT31;51087;55.718;21.122;2022-08-21T15:37:12;23.02;85.11
64499;SHT31;51087;55.718;21.122;2022-08-21T15:39:38;22.99;85.44
64499;SHT31;51087;55.718;21.122;2022-08-21T15:42:04;22.98;85.74
64499;SHT31;51087;55.718;21.122;2022-08-21T15:44:30;23.05;85.57
64499;SHT31;51087;55.718;21.122;2022-08-21T15:46:56;23.15;85.29
64499;SHT31;51087;55.718;21.122;2022-08-21T15:49:22;23.09;85.53
64499;SHT31;51087;55.718;21.122;2022-08-21T15:51:47;23.09;85.66
64499;SHT31;51087;55.718;21.122;2022-08-21T15:54:13;23.09;86.27
64499;SHT31;51087;55.718;21.122;2022-08-21T15:56:40;23.09;86.06
64499;SHT31;51087;55.718;21.122;2022-08-21T15:59:13;23.01;86.68
64499;SHT31;51087;55.718;21.122;2022-08-21T16:01:39;22.98;87.24
64499;SHT31;51087;55.718;21.122;2022-08-21T16:04:05;22.98;87.52
64499;SHT31;51087;55.718;21.122;2022-08-21T16:06:31;22.92;87.52
64499;SHT31;51087;55.718;21.122;2022-08-21T16:08:58;22.92;87.39
64499;SHT31;51087;55.718;21.122;2022-08-21T16:11:23;22.94;87.18
64499;SHT31;51087;55.718;21.122;2022-08-21T16:13:49;22.90;87.41
64499;SHT31;51087;55.718;21.122;2022-08-21T16:16:18;22.90;87.57
64499;SHT31;51087;55.718;21.122;2022-08-21T16:18:45;22.84;87.31
64499;SHT31;51087;55.718;21.122;2022-08-21T16:21:11;22.83;87.56
64499;SHT31;51087;55.718;21.122;2022-08-21T16:23:36;22.81;86.97
64499;SHT31;51087;55.718;21.122;2022-08-21T16:26:04;22.78;86.67
64499;SHT31;51087;55.718;21.122;2022-08-21T16:28:31;22.83;86.82
64499;SHT31;51087;55.718;21.122;2022-08-21T16:30:58;22.84;87.32
64499;SHT31;51087;55.718;21.122;2022-08-21T16:33:34;22.85;87.98